Time;durP1;ratioP1;P1;durP2;ratioP2;P2;SDS_P1;SDS_P2;PMS_P1;PMS_P2;Temp;Humidity;BMP_temperature;BMP_pressure;BME280_temperature;BME280_humidity;BME280_pressure;Samples;Min_cycle;Max_cycle;Signal;HPM_P1;HPM_P2
2022/07/18 00:01:28;;;;;;;5.43;3.60;;;19.60;54.00;;;;;;5055313;28;20144;-68
2022/07/18 00:03:54;;;;;;;4.78;3.75;;;19.60;54.00;;;;;;5055369;28;20420;-68
2022/07/18 00:06:20;;;;;;;6.28;3.47;;;19.50;54.50;;;;;;5054765;28;20087;-68
2022/07/18 00:08:45;;;;;;;4.40;3.28;;;19.50;54.10;;;;;;5055141;28;20075;-63
2022/07/18 00:11:11;;;;;;;4.55;3.10;;;19.50;54.20;;;;;;5054034;28;20037;-67
2022/07/18 00:13:37;;;;;;;4.30;3.15;;;19.40;54.20;;;;;;5054987;28;20522;-68
2022/07/18 00:16:03;;;;;;;4.72;3.60;;;19.40;54.40;;;;;;5055620;28;20108;-68
2022/07/18 00:18:30;;;;;;;4.78;3.10;;;19.30;54.50;;;;;;5054665;28;20067;-68
2022/07/18 00:20:55;;;;;;;3.60;2.78;;;19.30;54.50;;;;;;5054494;28;20074;-68
2022/07/18 00:23:21;;;;;;;4.82;3.42;;;19.30;54.50;;;;;;5054319;28;20041;-68
2022/07/18 00:25:47;;;;;;;4.45;3.35;;;19.30;54.50;;;;;;5071157;28;20033;-68
2022/07/18 00:28:13;;;;;;;5.50;3.45;;;19.20;54.50;;;;;;5054493;28;20080;-63
2022/07/18 00:30:39;;;;;;;5.15;3.20;;;19.20;54.60;;;;;;5034545;28;20404;-64
2022/07/18 00:33:05;;;;;;;4.85;3.80;;;19.10;54.50;;;;;;5050451;28;20167;-67
2022/07/18 00:35:31;;;;;;;5.07;3.75;;;19.10;54.60;;;;;;5054057;28;20036;-67
2022/07/18 00:37:57;;;;;;;4.82;3.42;;;19.10;54.70;;;;;;5054126;28;20040;-67
2022/07/18 00:40:22;;;;;;;4.65;3.20;;;19.00;54.60;;;;;;5055558;28;20045;-67
2022/07/18 00:42:49;;;;;;;4.43;3.60;;;19.00;54.60;;;;;;5054339;28;20053;-67
2022/07/18 00:45:15;;;;;;;5.43;3.28;;;19.00;54.60;;;;;;5071071;28;20044;-67
2022/07/18 00:47:41;;;;;;;4.28;3.33;;;19.00;54.70;;;;;;5054037;28;20051;-67
2022/07/18 00:50:08;;;;;;;4.82;3.30;;;19.00;54.70;;;;;;5055320;28;20041;-63
2022/07/18 00:52:34;;;;;;;4.60;3.30;;;18.90;54.70;;;;;;5054033;28;20091;-63
2022/07/18 00:55:00;;;;;;;4.35;3.45;;;18.90;54.70;;;;;;5055545;28;20036;-64
2022/07/18 00:57:27;;;;;;;5.80;3.97;;;18.90;54.70;;;;;;5053973;28;20413;-63
2022/07/18 01:02:39;;;;;;;3.85;2.95;;;18.90;54.80;;;;;;5053674;28;20098;-63
2022/07/18 01:05:06;;;;;;;6.55;3.65;;;18.80;54.70;;;;;;5053454;28;20037;-67
2022/07/18 01:07:34;;;;;;;5.07;3.45;;;18.80;54.90;;;;;;5053382;28;20048;-67
2022/07/18 01:09:59;;;;;;;4.40;3.55;;;18.80;54.90;;;;;;5053620;28;20055;-63
2022/07/18 01:12:28;;;;;;;6.18;3.78;;;18.80;54.80;;;;;;5053582;28;20124;-63
2022/07/18 01:14:55;;;;;;;4.95;3.70;;;18.70;54.80;;;;;;5054356;28;20125;-63
2022/07/18 01:17:21;;;;;;;5.28;4.13;;;18.70;54.90;;;;;;5053954;28;20049;-63
2022/07/18 01:19:47;;;;;;;4.55;3.47;;;18.70;54.90;;;;;;5053673;28;20505;-63
2022/07/18 01:22:16;;;;;;;5.65;3.72;;;18.70;54.90;;;;;;5053252;28;20482;-63
2022/07/18 01:24:43;;;;;;;4.55;3.38;;;18.60;54.80;;;;;;5053253;28;20494;-63
2022/07/18 01:27:13;;;;;;;4.45;3.40;;;18.60;54.80;;;;;;5053696;28;20044;-63
2022/07/18 01:29:39;;;;;;;4.97;3.40;;;18.60;54.80;;;;;;5054525;28;20041;-67
2022/07/18 01:32:09;;;;;;;5.13;3.30;;;18.50;54.80;;;;;;5053389;28;20501;-67
2022/07/18 01:34:35;;;;;;;5.70;3.85;;;18.50;54.80;;;;;;5052654;28;20037;-63
2022/07/18 01:37:02;;;;;;;4.80;3.30;;;18.50;54.90;;;;;;5033660;28;20072;-67
2022/07/18 01:39:27;;;;;;;5.40;3.22;;;18.40;54.90;;;;;;5049199;28;20039;-68
2022/07/18 01:42:05;;;;;;;5.00;3.38;;;18.40;55.00;;;;;;5053361;28;20041;-68
2022/07/18 01:44:33;;;;;;;4.32;3.30;;;18.30;55.00;;;;;;5052977;28;20041;-67
2022/07/18 01:46:59;;;;;;;4.88;3.42;;;18.30;55.00;;;;;;5051549;28;20124;-63
2022/07/18 01:49:25;;;;;;;5.40;3.33;;;18.20;55.10;;;;;;5048291;28;20443;-63
2022/07/18 01:51:53;;;;;;;5.13;3.65;;;18.20;55.20;;;;;;5053158;28;20068;-63
2022/07/18 01:54:22;;;;;;;4.60;3.60;;;18.20;55.20;;;;;;5053064;28;20094;-63
2022/07/18 01:56:48;;;;;;;4.68;3.65;;;18.20;55.20;;;;;;5052946;28;20477;-63
2022/07/18 01:59:13;;;;;;;5.22;3.47;;;18.10;55.20;;;;;;5053794;28;20128;-63
2022/07/18 02:01:39;;;;;;;5.38;3.33;;;18.10;55.20;;;;;;5036336;28;20124;-63
2022/07/18 02:04:05;;;;;;;4.60;3.33;;;18.10;55.20;;;;;;5052707;28;20072;-63
2022/07/18 02:06:31;;;;;;;3.78;2.97;;;18.10;55.20;;;;;;5069485;28;20033;-63
2022/07/18 02:08:56;;;;;;;4.30;3.08;;;18.10;55.30;;;;;;5052607;28;20038;-63
2022/07/18 02:11:22;;;;;;;3.67;2.65;;;18.00;55.60;;;;;;5033064;28;20080;-63
2022/07/18 02:13:48;;;;;;;4.55;3.50;;;18.00;55.30;;;;;;5052304;28;20452;-63
2022/07/18 02:16:13;;;;;;;5.55;3.45;;;18.00;55.40;;;;;;5053099;28;20044;-62
2022/07/18 02:18:39;;;;;;;3.83;2.90;;;17.90;55.20;;;;;;5035092;28;20490;-62
2022/07/18 02:21:05;;;;;;;3.90;2.80;;;17.90;55.10;;;;;;5053130;28;20146;-63
2022/07/18 02:23:31;;;;;;;4.63;2.80;;;17.80;55.20;;;;;;5053736;28;20040;-63
2022/07/18 02:25:56;;;;;;;4.65;3.30;;;17.70;55.30;;;;;;5053541;28;20045;-67
2022/07/18 02:28:22;;;;;;;3.47;2.72;;;17.70;55.50;;;;;;5053767;28;20641;-68
2022/07/18 02:30:48;;;;;;;3.22;2.60;;;17.60;55.60;;;;;;5052133;28;20061;-68
2022/07/18 02:33:15;;;;;;;4.03;2.60;;;17.60;55.60;;;;;;5051774;28;20091;-68
2022/07/18 02:35:42;;;;;;;4.13;3.20;;;17.60;55.70;;;;;;5052886;28;20121;-68
2022/07/18 02:38:07;;;;;;;3.88;3.13;;;17.60;55.80;;;;;;5052685;28;20048;-68
2022/07/18 02:40:33;;;;;;;5.60;2.67;;;17.50;55.90;;;;;;5052135;28;20377;-67
2022/07/18 02:42:59;;;;;;;4.45;2.97;;;17.60;56.00;;;;;;5052288;28;20420;-63
2022/07/18 02:45:25;;;;;;;4.25;2.83;;;17.50;55.90;;;;;;5053537;28;20378;-63
2022/07/18 02:47:51;;;;;;;4.30;3.38;;;17.50;55.90;;;;;;5052127;28;20053;-63
2022/07/18 02:50:16;;;;;;;5.53;3.75;;;17.50;56.00;;;;;;5055497;28;20494;-63
2022/07/18 02:52:43;;;;;;;3.95;2.90;;;17.50;56.20;;;;;;5053379;28;20045;-63
2022/07/18 02:55:10;;;;;;;5.00;3.00;;;17.50;56.20;;;;;;5053263;28;20047;-68
2022/07/18 02:57:36;;;;;;;4.55;3.05;;;17.40;56.10;;;;;;5052247;28;20057;-67
2022/07/18 03:00:05;;;;;;;4.82;3.30;;;17.40;56.20;;;;;;5051811;28;20504;-66
2022/07/18 03:02:30;;;;;;;4.20;2.75;;;17.40;56.20;;;;;;5058049;28;20041;-67
2022/07/18 03:04:56;;;;;;;4.68;3.15;;;17.30;56.20;;;;;;5051358;28;20041;-68
2022/07/18 03:07:22;;;;;;;3.72;2.70;;;17.30;56.20;;;;;;5035158;28;20509;-67
2022/07/18 03:09:48;;;;;;;5.45;3.40;;;17.30;56.20;;;;;;5052542;28;20037;-67
2022/07/18 03:12:14;;;;;;;3.88;2.88;;;17.30;56.20;;;;;;5051606;28;20474;-67
2022/07/18 03:14:39;;;;;;;4.63;3.05;;;17.30;56.10;;;;;;5052655;28;20060;-67
2022/07/18 03:17:05;;;;;;;3.53;3.00;;;17.30;56.10;;;;;;5051376;28;20198;-67
2022/07/18 03:19:31;;;;;;;3.78;2.92;;;17.30;56.10;;;;;;5051606;28;20056;-68
2022/07/18 03:21:56;;;;;;;5.28;3.45;;;17.30;56.20;;;;;;5051313;28;20047;-67
2022/07/18 03:24:22;;;;;;;4.25;3.17;;;17.30;56.20;;;;;;5051439;28;20531;-66
2022/07/18 03:26:48;;;;;;;3.38;2.85;;;17.30;56.30;;;;;;5052067;28;20048;-68
2022/07/18 03:29:13;;;;;;;4.60;2.95;;;17.30;56.20;;;;;;5051151;28;20048;-67
2022/07/18 03:31:39;;;;;;;5.28;2.95;;;17.30;56.30;;;;;;5051067;28;20099;-67
2022/07/18 03:34:05;;;;;;;4.40;3.10;;;17.30;56.30;;;;;;5051312;28;20056;-67
2022/07/18 03:36:31;;;;;;;5.72;4.03;;;17.30;56.30;;;;;;5051264;28;20048;-67
2022/07/18 03:38:57;;;;;;;3.85;2.80;;;17.20;56.40;;;;;;5050046;28;20079;-62
2022/07/18 03:41:23;;;;;;;4.70;3.13;;;17.20;56.80;;;;;;5050985;28;20490;-63
2022/07/18 03:43:49;;;;;;;5.72;3.63;;;17.20;56.40;;;;;;5051463;28;20141;-62
2022/07/18 03:46:14;;;;;;;5.35;3.22;;;17.20;56.50;;;;;;5050874;28;20044;-63
2022/07/18 03:48:40;;;;;;;4.95;3.55;;;17.20;56.50;;;;;;5051300;28;20040;-63
2022/07/18 03:51:06;;;;;;;5.03;3.30;;;17.20;56.60;;;;;;5052157;28;20052;-62
2022/07/18 03:53:32;;;;;;;4.65;3.35;;;17.20;56.60;;;;;;5050820;28;20119;-62
2022/07/18 03:55:59;;;;;;;6.50;3.78;;;17.20;56.60;;;;;;5050822;28;20044;-66
2022/07/18 03:58:25;;;;;;;5.45;3.65;;;17.10;56.70;;;;;;5051289;28;20391;-63
2022/07/18 04:00:51;;;;;;;6.10;3.92;;;17.10;57.30;;;;;;5051979;28;20189;-62
2022/07/18 04:03:18;;;;;;;6.32;3.88;;;17.10;56.90;;;;;;5050935;28;20509;-62
2022/07/18 04:05:44;;;;;;;4.50;3.30;;;17.10;56.90;;;;;;5051231;28;20111;-62
2022/07/18 04:08:10;;;;;;;6.88;4.70;;;17.10;57.00;;;;;;5051010;28;20049;-62
2022/07/18 04:10:39;;;;;;;7.13;4.50;;;17.10;57.30;;;;;;5052018;28;20045;-62
2022/07/18 04:13:06;;;;;;;6.45;4.70;;;17.10;57.60;;;;;;5051186;28;20120;-63
2022/07/18 04:15:33;;;;;;;5.65;4.05;;;17.00;57.50;;;;;;5050838;28;20112;-67
2022/07/18 04:17:58;;;;;;;6.22;4.32;;;17.00;57.50;;;;;;5052068;28;20113;-67
2022/07/18 04:20:24;;;;;;;6.25;4.32;;;17.00;57.60;;;;;;5031281;28;20128;-67
2022/07/18 04:22:53;;;;;;;5.85;4.40;;;17.00;57.70;;;;;;5049761;28;20497;-67
2022/07/18 04:25:21;;;;;;;7.15;4.68;;;17.00;57.90;;;;;;5051051;28;20049;-67
2022/07/18 04:27:47;;;;;;;6.40;4.40;;;17.00;58.10;;;;;;5051118;28;20048;-67
2022/07/18 04:30:15;;;;;;;7.80;5.30;;;17.00;58.10;;;;;;5051184;28;20065;-68
2022/07/18 04:32:41;;;;;;;5.95;4.55;;;17.00;58.10;;;;;;5036122;28;20061;-67
2022/07/18 04:35:08;;;;;;;8.55;4.75;;;17.00;58.10;;;;;;5050847;28;20041;-67
2022/07/18 04:37:34;;;;;;;6.63;4.90;;;17.00;58.10;;;;;;5050426;28;20047;-66
2022/07/18 04:40:00;;;;;;;8.02;5.20;;;16.90;57.80;;;;;;5051094;28;20381;-68
2022/07/18 04:42:26;;;;;;;6.85;4.85;;;17.00;58.20;;;;;;5050948;28;20072;-67
2022/07/18 04:44:52;;;;;;;5.90;4.50;;;17.00;57.70;;;;;;5055583;28;20072;-67
2022/07/18 04:47:18;;;;;;;6.78;4.70;;;17.00;57.70;;;;;;5055250;28;20052;-68
2022/07/18 04:49:43;;;;;;;7.20;4.88;;;17.00;57.80;;;;;;5054202;28;20045;-68
2022/07/18 04:52:09;;;;;;;9.25;5.65;;;17.00;58.00;;;;;;5036511;28;20039;-63
2022/07/18 04:54:35;;;;;;;6.63;4.95;;;17.10;57.90;;;;;;5055757;28;20040;-62
2022/07/18 04:57:00;;;;;;;6.38;4.88;;;17.10;57.80;;;;;;5054071;28;20398;-67
2022/07/18 04:59:26;;;;;;;9.18;5.05;;;17.10;57.80;;;;;;5054157;28;20410;-63
2022/07/18 05:01:52;;;;;;;6.85;4.60;;;17.10;57.80;;;;;;5054029;28;20448;-63
2022/07/18 05:04:17;;;;;;;8.52;5.90;;;17.10;58.00;;;;;;5054279;28;20059;-62
2022/07/18 05:06:43;;;;;;;6.00;5.05;;;17.10;58.60;;;;;;5053498;28;20099;-63
2022/07/18 05:09:09;;;;;;;5.53;4.20;;;17.10;58.80;;;;;;5053790;28;20044;-64
2022/07/18 05:11:34;;;;;;;8.00;5.75;;;17.10;58.80;;;;;;5053593;28;20063;-63
2022/07/18 05:14:00;;;;;;;8.77;5.15;;;17.10;59.10;;;;;;5054993;28;20029;-63
2022/07/18 05:16:26;;;;;;;6.18;4.38;;;17.10;58.70;;;;;;5053800;28;20044;-63
2022/07/18 05:18:51;;;;;;;8.68;5.43;;;17.20;58.20;;;;;;5070686;28;20052;-63
2022/07/18 05:21:17;;;;;;;7.65;5.55;;;17.20;58.00;;;;;;5054359;28;20473;-63
2022/07/18 05:23:45;;;;;;;8.30;5.57;;;17.20;57.70;;;;;;5054182;28;20055;-68
2022/07/18 05:26:11;;;;;;;9.65;5.90;;;17.30;57.90;;;;;;5053591;28;20436;-67
2022/07/18 05:28:37;;;;;;;8.70;5.90;;;17.30;58.00;;;;;;5053908;28;20407;-68
2022/07/18 05:31:03;;;;;;;7.22;5.28;;;17.40;57.90;;;;;;5053203;28;20041;-68
2022/07/18 05:33:28;;;;;;;10.07;6.05;;;17.50;57.90;;;;;;5053238;28;20036;-67
2022/07/18 05:35:54;;;;;;;7.35;5.00;;;17.50;57.60;;;;;;5053179;28;20037;-64
2022/07/18 05:38:20;;;;;;;8.57;5.38;;;17.60;57.50;;;;;;5053318;28;20408;-64
2022/07/18 05:40:46;;;;;;;7.25;5.13;;;17.70;57.30;;;;;;5053066;28;20049;-63
2022/07/18 05:43:11;;;;;;;7.25;4.88;;;17.80;57.10;;;;;;5054632;28;20116;-64
2022/07/18 05:45:37;;;;;;;7.60;4.72;;;17.90;57.00;;;;;;5051971;28;20037;-63
2022/07/18 05:48:03;;;;;;;7.30;4.28;;;17.90;56.40;;;;;;5057077;28;20544;-63
2022/07/18 05:50:29;;;;;;;8.63;5.18;;;18.00;56.20;;;;;;5049346;28;20037;-68
2022/07/18 05:52:55;;;;;;;7.40;4.25;;;18.00;55.90;;;;;;5054438;28;20171;-69
2022/07/18 05:55:21;;;;;;;6.93;4.63;;;18.10;55.60;;;;;;5052450;28;20482;-69
2022/07/18 05:57:46;;;;;;;7.78;4.30;;;18.10;55.50;;;;;;5048523;28;20053;-68
2022/07/18 06:00:13;;;;;;;8.23;5.38;;;18.20;55.50;;;;;;5064962;28;20578;-68
2022/07/18 06:02:38;;;;;;;6.93;4.72;;;18.20;55.30;;;;;;5052959;28;20098;-69
2022/07/18 06:05:06;;;;;;;7.60;4.47;;;18.30;55.30;;;;;;5053000;28;20045;-69
2022/07/18 06:07:32;;;;;;;7.55;5.13;;;18.30;55.30;;;;;;5053130;28;20437;-69
2022/07/18 06:09:57;;;;;;;8.02;4.88;;;18.30;55.20;;;;;;5052802;28;20049;-69
2022/07/18 06:12:23;;;;;;;8.38;5.00;;;18.40;55.10;;;;;;5052993;28;20086;-69
2022/07/18 06:14:49;;;;;;;9.48;4.88;;;18.40;55.00;;;;;;5053045;28;20029;-69
2022/07/18 06:17:14;;;;;;;8.38;4.47;;;18.40;55.10;;;;;;5052500;28;20486;-69
2022/07/18 06:19:41;;;;;;;8.23;4.75;;;18.50;55.20;;;;;;5052807;28;20047;-69
2022/07/18 06:22:08;;;;;;;9.38;4.75;;;18.50;55.00;;;;;;5052414;28;20489;-68
2022/07/18 06:24:33;;;;;;;6.70;4.65;;;18.60;54.80;;;;;;5054042;28;20482;-69
2022/07/18 06:26:59;;;;;;;6.45;4.57;;;18.60;54.80;;;;;;5052514;28;20048;-69
2022/07/18 06:29:25;;;;;;;6.78;4.35;;;18.70;55.10;;;;;;5052265;28;20052;-69
2022/07/18 06:31:50;;;;;;;10.18;4.82;;;18.70;55.30;;;;;;5052671;28;20099;-69
2022/07/18 06:34:16;;;;;;;8.70;4.75;;;18.80;55.20;;;;;;5052254;28;20045;-69
2022/07/18 06:36:42;;;;;;;8.27;4.88;;;18.90;55.20;;;;;;5053547;28;20044;-71
2022/07/18 06:39:11;;;;;;;9.00;4.78;;;18.90;54.80;;;;;;5052456;28;20049;-71
2022/07/18 06:41:40;;;;;;;6.78;4.60;;;19.00;55.20;;;;;;5052284;28;20485;-72
2022/07/18 06:44:06;;;;;;;8.73;4.63;;;19.10;54.70;;;;;;5032434;28;20084;-72
2022/07/18 06:46:32;;;;;;;5.78;3.72;;;19.30;54.40;;;;;;5032750;28;20033;-72
2022/07/18 06:48:58;;;;;;;6.70;3.90;;;19.40;54.20;;;;;;5046487;28;20499;-72
2022/07/18 06:51:24;;;;;;;5.43;3.47;;;19.50;54.50;;;;;;5047435;28;20099;-72
2022/07/18 06:53:51;;;;;;;5.53;3.60;;;19.70;54.40;;;;;;5048244;28;20127;-72
2022/07/18 06:56:17;;;;;;;8.40;3.80;;;20.00;54.20;;;;;;5048342;28;20052;-72
2022/07/18 06:58:48;;;;;;;8.05;3.42;;;20.10;53.30;;;;;;5050157;28;20045;-73
2022/07/18 07:01:15;;;;;;;7.50;4.32;;;20.40;53.10;;;;;;5051516;28;20544;-73
2022/07/18 07:03:41;;;;;;;7.80;3.65;;;20.50;52.70;;;;;;5051286;28;20044;-73
2022/07/18 07:06:08;;;;;;;4.78;3.65;;;20.80;52.20;;;;;;5051425;28;20102;-72
2022/07/18 07:08:34;;;;;;;7.82;4.05;;;21.00;51.40;;;;;;5051659;28;20048;-72
2022/07/18 07:11:00;;;;;;;5.90;3.38;;;21.30;51.00;;;;;;5056488;28;20056;-72
2022/07/18 07:13:26;;;;;;;8.55;4.50;;;21.50;50.30;;;;;;5042903;28;20041;-72
2022/07/18 07:15:52;;;;;;;7.35;3.90;;;21.80;49.80;;;;;;5052101;28;20045;-73
2022/07/18 07:18:17;;;;;;;6.45;3.25;;;22.00;49.80;;;;;;5051401;28;20486;-72
2022/07/18 07:20:43;;;;;;;5.72;3.40;;;22.30;49.50;;;;;;5051588;28;20052;-72
2022/07/18 07:23:09;;;;;;;6.30;3.35;;;22.60;48.90;;;;;;5051494;28;20047;-73
2022/07/18 07:25:36;;;;;;;5.22;3.17;;;22.80;48.30;;;;;;5051451;28;20599;-72
2022/07/18 07:28:03;;;;;;;7.47;3.53;;;23.00;47.30;;;;;;5051395;28;20037;-73
2022/07/18 07:30:29;;;;;;;6.38;3.10;;;23.20;47.10;;;;;;5051318;28;20040;-72
2022/07/18 07:32:55;;;;;;;6.93;3.40;;;23.50;46.40;;;;;;5051214;28;20029;-72
2022/07/18 07:35:21;;;;;;;5.95;3.00;;;23.70;46.30;;;;;;5051531;28;20375;-72
2022/07/18 07:37:51;;;;;;;8.23;2.80;;;24.00;46.00;;;;;;5051246;28;20041;-72
2022/07/18 07:40:18;;;;;;;5.15;2.75;;;24.30;45.40;;;;;;5051288;28;20064;-72
2022/07/18 07:42:44;;;;;;;6.15;3.20;;;24.50;44.70;;;;;;5051352;28;20044;-73
2022/07/18 07:45:11;;;;;;;5.20;2.65;;;24.70;44.50;;;;;;5051792;28;20482;-72
2022/07/18 07:47:37;;;;;;;5.28;2.50;;;25.00;43.70;;;;;;5068082;28;20041;-73
2022/07/18 07:50:05;;;;;;;6.85;2.67;;;25.20;43.70;;;;;;5065389;28;20045;-72
2022/07/18 07:52:30;;;;;;;9.13;2.38;;;25.40;43.10;;;;;;5050580;28;20544;-73
2022/07/18 07:54:56;;;;;;;4.57;2.35;;;25.50;42.70;;;;;;5050356;28;20040;-73
2022/07/18 07:57:22;;;;;;;4.93;2.67;;;25.70;42.50;;;;;;5030854;28;20470;-73
2022/07/18 07:59:48;;;;;;;6.35;2.25;;;25.80;41.50;;;;;;5048196;28;20060;-73
2022/07/18 08:02:18;;;;;;;6.00;2.35;;;26.00;41.60;;;;;;5051241;28;20077;-73
2022/07/18 08:04:44;;;;;;;5.07;2.35;;;26.20;41.70;;;;;;5051092;28;20048;-73
2022/07/18 08:07:11;;;;;;;5.40;1.95;;;26.40;40.90;;;;;;5051371;28;20091;-73
2022/07/18 08:09:37;;;;;;;3.28;1.77;;;26.60;40.80;;;;;;5051261;28;20090;-73
2022/07/18 08:12:03;;;;;;;4.53;2.22;;;26.70;40.20;;;;;;5051108;28;20055;-73
2022/07/18 08:14:28;;;;;;;6.20;2.28;;;26.90;39.70;;;;;;5051063;28;20037;-72
2022/07/18 08:16:54;;;;;;;5.32;2.05;;;27.00;39.60;;;;;;5051085;28;20041;-74
2022/07/18 08:19:20;;;;;;;5.47;2.25;;;27.20;39.20;;;;;;5053785;28;20033;-73
2022/07/18 08:21:45;;;;;;;4.78;1.77;;;27.30;38.30;;;;;;5047193;28;20041;-73
2022/07/18 08:24:11;;;;;;;5.32;2.10;;;27.40;38.30;;;;;;5043248;28;20075;-73
2022/07/18 08:26:39;;;;;;;6.00;2.05;;;27.60;38.40;;;;;;5069826;28;20040;-73
2022/07/18 08:29:06;;;;;;;4.70;1.67;;;27.80;38.30;;;;;;5054427;28;20045;-74
2022/07/18 08:31:31;;;;;;;10.95;2.95;;;27.90;38.00;;;;;;5023952;28;20052;-69
2022/07/18 08:33:57;;;;;;;4.47;1.90;;;28.00;37.20;;;;;;5044458;28;20041;-69
2022/07/18 08:36:24;;;;;;;5.28;1.77;;;28.20;37.60;;;;;;5056337;28;20040;-69
2022/07/18 08:38:50;;;;;;;6.28;2.25;;;28.20;37.50;;;;;;5053756;28;20047;-74
2022/07/18 08:41:17;;;;;;;6.82;1.90;;;28.30;37.20;;;;;;5053248;28;20131;-74
2022/07/18 08:43:46;;;;;;;7.25;2.67;;;28.40;37.10;;;;;;5054746;28;20049;-74
2022/07/18 08:46:12;;;;;;;6.90;1.95;;;28.60;37.10;;;;;;5060318;28;20044;-74
2022/07/18 08:48:40;;;;;;;5.55;2.47;;;28.70;36.90;;;;;;5040065;28;20045;-73
2022/07/18 08:51:06;;;;;;;7.07;1.95;;;28.80;36.90;;;;;;5054017;28;20045;-73
2022/07/18 08:53:33;;;;;;;43.42;8.02;;;29.00;36.70;;;;;;5037864;28;20098;-73
2022/07/18 08:55:59;;;;;;;10.82;2.67;;;29.10;36.60;;;;;;5049265;28;20046;-73
2022/07/18 08:58:25;;;;;;;8.15;2.42;;;29.30;36.60;;;;;;5034307;28;20077;-69
2022/07/18 09:00:51;;;;;;;7.03;2.53;;;29.40;36.90;;;;;;5049130;28;20126;-74
2022/07/18 09:03:17;;;;;;;4.03;2.10;;;29.50;37.00;;;;;;5071207;28;20531;-74
2022/07/18 09:05:43;;;;;;;5.63;2.10;;;29.70;36.80;;;;;;5055395;28;20128;-73
2022/07/18 09:08:08;;;;;;;7.10;2.15;;;29.80;36.80;;;;;;5054590;28;20098;-73
2022/07/18 09:10:51;;;;;;;5.95;1.73;;;30.00;36.70;;;;;;5054126;28;20398;-73
2022/07/18 09:13:21;;;;;;;181.63;31.20;;;30.10;36.40;;;;;;5054197;28;20119;-74
2022/07/18 09:16:03;;;;;;;9.43;2.60;;;30.40;36.40;;;;;;5054028;28;20041;-74
2022/07/18 09:18:31;;;;;;;6.85;1.95;;;30.60;36.10;;;;;;5054198;28;20068;-74
2022/07/18 09:21:03;;;;;;;4.25;1.80;;;30.70;35.50;;;;;;5054096;28;20048;-72
2022/07/18 09:23:34;;;;;;;3.10;1.40;;;30.80;34.90;;;;;;5038156;28;20060;-73
2022/07/18 09:26:01;;;;;;;5.45;2.15;;;30.90;34.50;;;;;;5059158;28;20045;-73
2022/07/18 09:28:27;;;;;;;3.05;1.52;;;30.90;34.40;;;;;;5034055;28;20395;-74
2022/07/18 09:30:53;;;;;;;3.90;1.45;;;30.90;34.50;;;;;;5046480;28;20532;-73
2022/07/18 09:33:21;;;;;;;2.78;1.50;;;31.00;34.50;;;;;;5053790;28;20084;-75
2022/07/18 09:35:53;;;;;;;4.45;1.60;;;31.10;33.90;;;;;;5053436;28;20048;-75
2022/07/18 09:38:28;;;;;;;4.95;2.13;;;31.20;34.10;;;;;;5053635;28;20116;-75
2022/07/18 09:40:54;;;;;;;10.00;2.05;;;31.30;34.10;;;;;;5053107;28;20045;-74
2022/07/18 09:43:22;;;;;;;4.78;1.67;;;31.40;34.00;;;;;;5053072;28;20043;-77
2022/07/18 09:45:50;;;;;;;3.92;1.30;;;31.40;34.20;;;;;;5053933;28;20476;-74
2022/07/18 09:48:22;;;;;;;3.15;1.73;;;31.50;34.10;;;;;;5053273;28;20053;-74
2022/07/18 09:50:55;;;;;;;2.75;1.75;;;31.60;33.80;;;;;;5046895;28;20572;-74
2022/07/18 09:53:26;;;;;;;9.48;2.05;;;31.70;33.40;;;;;;5051424;28;20072;-74
2022/07/18 09:56:00;;;;;;;4.32;1.60;;;31.70;32.90;;;;;;5052350;28;20553;-72
2022/07/18 09:58:32;;;;;;;4.10;1.77;;;31.80;32.70;;;;;;5050697;28;20049;-72
2022/07/18 10:01:00;;;;;;;6.30;2.03;;;31.80;33.00;;;;;;5052894;28;20044;-73
2022/07/18 10:03:26;;;;;;;4.07;1.85;;;31.90;32.70;;;;;;5044394;28;20115;-68
2022/07/18 10:05:53;;;;;;;3.45;1.75;;;31.90;32.50;;;;;;5051506;28;20045;-68
2022/07/18 10:08:22;;;;;;;4.30;1.88;;;32.00;32.00;;;;;;5053130;28;20037;-68
2022/07/18 10:10:50;;;;;;;3.47;1.40;;;32.10;31.80;;;;;;5052683;28;20102;-65
2022/07/18 10:13:18;;;;;;;65.70;12.00;;;32.10;31.20;;;;;;5052878;28;20044;-70
2022/07/18 10:15:45;;;;;;;6.45;2.10;;;32.10;31.80;;;;;;5052739;28;20052;-70
2022/07/18 10:18:18;;;;;;;8.15;2.40;;;32.20;31.10;;;;;;5052926;28;20056;-70
2022/07/18 10:21:01;;;;;;;6.88;1.83;;;32.20;30.60;;;;;;5053039;28;20044;-70
2022/07/18 10:23:31;;;;;;;87.22;15.90;;;32.20;31.60;;;;;;5052804;28;20512;-70
2022/07/18 10:26:18;;;;;;;6.63;2.17;;;32.20;31.80;;;;;;5052826;28;20120;-70
2022/07/18 10:28:56;;;;;;;18.52;3.45;;;32.30;31.80;;;;;;5052662;28;20041;-71
2022/07/18 10:31:31;;;;;;;30.67;5.85;;;32.30;32.20;;;;;;5052475;28;20045;-70
2022/07/18 10:34:28;;;;;;;6.78;2.15;;;32.40;32.30;;;;;;5052712;28;20051;-70
2022/07/18 10:37:00;;;;;;;5.82;1.70;;;32.50;32.90;;;;;;5051077;28;20059;-72
2022/07/18 10:39:34;;;;;;;6.33;1.90;;;32.50;31.80;;;;;;5032907;28;20049;-71
2022/07/18 10:42:03;;;;;;;3.78;1.58;;;32.50;32.00;;;;;;5031834;28;20045;-70
2022/07/18 10:44:31;;;;;;;5.10;1.85;;;32.50;31.90;;;;;;5032879;28;20095;-71
2022/07/18 10:47:03;;;;;;;3.50;1.70;;;32.60;32.20;;;;;;5032529;28;20048;-70
2022/07/18 10:49:50;;;;;;;6.00;1.60;;;32.60;31.80;;;;;;5041429;28;20033;-69
2022/07/18 10:52:27;;;;;;;3.40;1.70;;;32.70;31.80;;;;;;5036708;28;20390;-69
2022/07/18 10:55:08;;;;;;;5.15;2.10;;;32.70;31.90;;;;;;5048143;28;20052;-70
2022/07/18 10:57:50;;;;;;;5.05;2.13;;;32.70;31.80;;;;;;5055849;28;20052;-69
2022/07/18 11:00:23;;;;;;;4.72;1.73;;;32.70;30.90;;;;;;5048702;28;20071;-70
2022/07/18 11:03:04;;;;;;;4.65;1.60;;;32.60;30.60;;;;;;5044036;28;20049;-69
2022/07/18 11:05:30;;;;;;;2.80;1.35;;;32.60;31.70;;;;;;5050372;28;20363;-70
2022/07/18 11:08:01;;;;;;;3.33;1.83;;;32.50;31.00;;;;;;5048898;28;20048;-69
2022/07/18 11:10:44;;;;;;;3.45;1.90;;;32.50;31.40;;;;;;5048449;28;20091;-69
2022/07/18 11:13:27;;;;;;;3.92;1.70;;;32.50;31.00;;;;;;5048393;28;20048;-70
2022/07/18 11:15:56;;;;;;;5.45;2.10;;;32.50;31.20;;;;;;5048065;28;20139;-69
2022/07/18 11:18:23;;;;;;;3.22;1.90;;;32.50;31.10;;;;;;5048213;28;20049;-69
2022/07/18 11:20:49;;;;;;;3.45;1.75;;;32.50;31.50;;;;;;5047472;28;20473;-70
2022/07/18 11:23:16;;;;;;;4.30;2.35;;;32.60;31.90;;;;;;5048482;28;20128;-70
2022/07/18 11:25:42;;;;;;;3.88;2.30;;;32.60;31.40;;;;;;5049137;28;20091;-71
2022/07/18 11:28:10;;;;;;;3.30;1.92;;;32.60;31.20;;;;;;5048415;28;20040;-70
2022/07/18 11:30:37;;;;;;;5.20;2.08;;;32.60;31.20;;;;;;5028342;28;20103;-69
2022/07/18 11:33:02;;;;;;;3.50;2.30;;;32.60;31.60;;;;;;5048225;28;20108;-69
2022/07/18 11:35:29;;;;;;;5.00;2.78;;;32.60;31.70;;;;;;5043145;28;20128;-69
2022/07/18 11:37:55;;;;;;;4.75;2.00;;;32.60;31.50;;;;;;5049350;28;20474;-69
2022/07/18 11:40:21;;;;;;;3.67;2.28;;;32.60;31.60;;;;;;5047660;28;20072;-70
2022/07/18 11:42:47;;;;;;;324.17;51.22;;;32.70;31.60;;;;;;5035016;28;20037;-69
2022/07/18 11:45:15;;;;;;;14.50;4.88;;;32.70;30.80;;;;;;5050890;28;20037;-69
2022/07/18 11:47:54;;;;;;;4.57;2.78;;;32.70;30.40;;;;;;5051476;28;20052;-70
2022/07/18 11:50:34;;;;;;;5.15;2.40;;;32.80;30.60;;;;;;5043432;28;20948;-70
2022/07/18 11:53:00;;;;;;;10.20;3.63;;;32.80;31.30;;;;;;5048716;28;20043;-69
2022/07/18 11:55:37;;;;;;;5.90;3.05;;;32.80;31.60;;;;;;5050003;28;20049;-69
2022/07/18 11:58:10;;;;;;;5.10;2.65;;;32.90;31.40;;;;;;5049242;28;20049;-69
2022/07/18 12:00:37;;;;;;;4.93;2.58;;;32.90;31.60;;;;;;5051707;28;20502;-69
2022/07/18 12:03:16;;;;;;;4.65;2.58;;;33.00;31.50;;;;;;5050010;28;20048;-71
2022/07/18 12:05:50;;;;;;;3.65;2.20;;;33.20;31.10;;;;;;5052843;28;20122;-70
2022/07/18 12:08:29;;;;;;;8.68;3.40;;;33.20;31.20;;;;;;5050876;28;20037;-70
2022/07/18 12:11:19;;;;;;;4.68;2.35;;;33.30;31.60;;;;;;5049124;28;20745;-70
2022/07/18 12:13:50;;;;;;;3.75;2.65;;;33.40;31.80;;;;;;5050190;28;20048;-70
2022/07/18 12:16:33;;;;;;;4.18;2.40;;;33.50;31.30;;;;;;5049719;28;20045;-70
2022/07/18 12:19:01;;;;;;;13.97;3.17;;;33.50;31.30;;;;;;5039167;28;20389;-70
2022/07/18 12:21:53;;;;;;;4.13;2.60;;;33.50;31.30;;;;;;5049772;28;20057;-70
2022/07/18 12:24:27;;;;;;;4.90;2.50;;;33.50;31.30;;;;;;5048963;28;20048;-70
2022/07/18 12:27:21;;;;;;;3.42;2.30;;;33.50;31.50;;;;;;5066081;28;20155;-70
2022/07/18 12:29:56;;;;;;;5.05;2.53;;;33.50;31.30;;;;;;5049877;28;20130;-71
2022/07/18 12:32:29;;;;;;;4.93;2.58;;;33.60;31.00;;;;;;5055684;28;20041;-70
2022/07/18 12:35:00;;;;;;;4.97;2.65;;;33.60;31.40;;;;;;5050168;28;20075;-66
2022/07/18 12:37:27;;;;;;;5.22;2.40;;;33.60;31.40;;;;;;5032788;28;20481;-67
2022/07/18 12:40:03;;;;;;;5.00;2.25;;;33.60;31.30;;;;;;5049572;28;20053;-66
2022/07/18 12:42:37;;;;;;;3.88;2.25;;;33.60;31.40;;;;;;5064271;28;20072;-66
2022/07/18 12:45:04;;;;;;;3.88;2.38;;;33.60;31.40;;;;;;5048896;28;20448;-66
2022/07/18 12:47:30;;;;;;;3.35;2.47;;;33.60;31.50;;;;;;5049098;28;20095;-66
2022/07/18 12:49:56;;;;;;;5.65;2.35;;;33.60;31.60;;;;;;5050090;28;20052;-66
2022/07/18 12:52:23;;;;;;;4.53;2.88;;;33.60;31.30;;;;;;5031393;28;20071;-66